createdAt,value
2022-09-14T00:00:01.167Z,100.0
2022-09-14T00:01:24.235Z,100.0
2022-09-14T00:02:01.096Z,100.0
2022-09-14T00:03:01.098Z,100.0
2022-09-14T00:04:03.382Z,100.0
2022-09-14T00:05:01.213Z,100.0
2022-09-14T00:06:06.404Z,100.0
2022-09-14T00:07:00.952Z,100.0
2022-09-14T00:08:02.031Z,100.0
2022-09-14T00:09:02.058Z,100.0
2022-09-14T00:10:01.236Z,100.0
2022-09-14T00:11:05.027Z,100.0
2022-09-14T00:12:01.210Z,100.0
2022-09-14T00:13:00.988Z,100.0
2022-09-14T00:14:01.853Z,100.0
2022-09-14T00:15:00.969Z,100.0
2022-09-14T00:16:04.440Z,100.0
2022-09-14T00:17:01.356Z,100.0
2022-09-14T00:18:00.958Z,100.0
2022-09-14T00:19:04.838Z,100.0
2022-09-14T00:20:01.240Z,100.0
2022-09-14T00:21:02.891Z,100.0
2022-09-14T00:22:01.310Z,100.0
2022-09-14T00:23:01.593Z,100.0
2022-09-14T00:24:01.215Z,100.0
2022-09-14T00:25:01.289Z,100.0
2022-09-14T00:26:03.150Z,100.0
2022-09-14T00:27:01.573Z,100.0
2022-09-14T00:28:01.190Z,100.0
2022-09-14T00:29:02.446Z,100.0
2022-09-14T00:30:01.294Z,100.0
2022-09-14T00:31:02.880Z,100.0
2022-09-14T00:32:01.453Z,100.0
2022-09-14T00:33:01.249Z,100.0
2022-09-14T00:34:02.422Z,100.0
2022-09-14T00:35:01.362Z,100.0
2022-09-14T00:36:10.299Z,100.0
2022-09-14T00:37:01.244Z,99.2
2022-09-14T00:38:01.529Z,99.2
2022-09-14T00:39:01.279Z,100.0
2022-09-14T00:40:01.289Z,100.0
2022-09-14T00:41:02.240Z,100.0
2022-09-14T00:42:00.982Z,100.0
2022-09-14T00:43:01.698Z,100.0
2022-09-14T00:44:03.882Z,100.0
2022-09-14T00:45:07.617Z,100.0
2022-09-14T00:46:01.677Z,100.0
2022-09-14T00:47:02.029Z,100.0
2022-09-14T00:48:01.135Z,100.0
2022-09-14T00:49:03.772Z,100.0
2022-09-14T00:50:03.699Z,100.0
2022-09-14T00:51:01.420Z,100.0
2022-09-14T00:52:05.018Z,100.0
2022-09-14T00:53:01.357Z,100.0
2022-09-14T00:54:01.500Z,100.0
2022-09-14T00:55:05.489Z,100.0
2022-09-14T00:56:01.158Z,100.0
2022-09-14T00:57:02.533Z,100.0
2022-09-14T00:58:01.505Z,100.0
2022-09-14T00:59:09.004Z,100.0
2022-09-14T01:00:03.295Z,100.0
2022-09-14T01:01:01.258Z,100.0
2022-09-14T01:02:01.483Z,100.0
2022-09-14T01:03:01.291Z,100.0
2022-09-14T01:04:01.612Z,100.0
2022-09-14T01:05:01.346Z,100.0
2022-09-14T01:06:09.861Z,100.0
2022-09-14T01:07:11.554Z,100.0
2022-09-14T01:08:14.529Z,100.0
2022-09-14T01:09:12.384Z,100.0
2022-09-14T01:10:17.339Z,100.0
2022-09-14T01:11:16.636Z,100.0
2022-09-14T01:12:12.410Z,100.0
2022-09-14T01:13:12.911Z,100.0
2022-09-14T01:14:15.017Z,100.0
2022-09-14T01:15:07.233Z,100.0
2022-09-14T01:16:09.707Z,100.0
2022-09-14T01:17:07.158Z,100.0
2022-09-14T01:18:06.724Z,100.0
2022-09-14T01:19:05.019Z,100.0
2022-09-14T01:20:14.916Z,100.0
2022-09-14T01:21:06.064Z,100.0
2022-09-14T01:22:07.943Z,100.0
2022-09-14T01:23:09.286Z,100.0
2022-09-14T01:24:06.746Z,100.0
2022-09-14T01:25:13.479Z,100.0
2022-09-14T01:26:20.421Z,100.0
2022-09-14T01:27:20.391Z,100.0
2022-09-14T01:28:07.453Z,100.0
2022-09-14T01:29:05.648Z,100.0
2022-09-14T01:30:06.940Z,100.0
2022-09-14T01:31:08.445Z,100.0
2022-09-14T01:32:07.851Z,100.0
2022-09-14T01:33:05.324Z,100.0
2022-09-14T01:34:08.099Z,100.0
2022-09-14T01:35:11.275Z,100.0
2022-09-14T01:36:06.877Z,100.0
2022-09-14T01:37:07.750Z,100.0
2022-09-14T01:38:04.755Z,100.0
2022-09-14T01:39:02.546Z,100.0
2022-09-14T01:40:09.460Z,100.0
2022-09-14T01:41:06.364Z,100.0
2022-09-14T01:42:02.066Z,100.0
2022-09-14T01:43:06.677Z,100.0
2022-09-14T01:44:07.985Z,100.0
2022-09-14T01:45:07.656Z,100.0
2022-09-14T01:46:07.449Z,100.0
2022-09-14T01:47:08.890Z,100.0
2022-09-14T01:48:06.438Z,100.0
2022-09-14T01:49:07.833Z,100.0
2022-09-14T01:50:07.221Z,100.0
2022-09-14T01:51:07.688Z,100.0
2022-09-14T01:52:07.327Z,100.0
2022-09-14T01:53:08.764Z,98.9
2022-09-14T01:54:07.363Z,96.8
2022-09-14T01:55:06.214Z,97.9
2022-09-14T01:56:06.344Z,97.5
2022-09-14T01:57:08.369Z,98.0
2022-09-14T01:58:07.084Z,99.6
2022-09-14T01:59:07.777Z,100.0
2022-09-14T02:00:06.180Z,99.2
2022-09-14T02:01:03.631Z,99.2
2022-09-14T02:02:07.247Z,98.4
2022-09-14T02:03:10.374Z,96.8
2022-09-14T02:04:06.354Z,95.7
2022-09-14T02:05:07.164Z,94.5
2022-09-14T02:06:08.998Z,94.0
2022-09-14T02:07:01.727Z,93.4
2022-09-14T02:08:01.280Z,93.3
2022-09-14T02:09:03.389Z,93.0
2022-09-14T02:10:02.673Z,93.5
2022-09-14T02:11:01.495Z,92.7
2022-09-14T02:12:01.483Z,91.7
2022-09-14T02:13:01.884Z,91.0
2022-09-14T02:14:01.569Z,93.1
2022-09-14T02:15:01.488Z,96.5
2022-09-14T02:16:01.641Z,95.5
2022-09-14T02:17:01.739Z,94.3
2022-09-14T02:18:01.823Z,94.2
2022-09-14T02:19:01.760Z,93.3
2022-09-14T02:20:04.759Z,94.7
2022-09-14T02:21:05.288Z,94.7
2022-09-14T02:22:01.266Z,96.0
2022-09-14T02:23:01.322Z,96.1
2022-09-14T02:24:01.844Z,94.9
2022-09-14T02:25:02.441Z,96.0
2022-09-14T02:26:01.314Z,96.4
2022-09-14T02:27:02.773Z,95.5
2022-09-14T02:28:01.491Z,98.3
2022-09-14T02:29:01.473Z,99.5
2022-09-14T02:30:01.451Z,99.7
2022-09-14T02:31:09.447Z,100.0
2022-09-14T02:32:14.441Z,100.0
2022-09-14T02:33:09.682Z,100.0
2022-09-14T02:34:08.025Z,100.0
2022-09-14T02:35:09.384Z,100.0
2022-09-14T02:36:07.279Z,100.0
2022-09-14T02:37:08.034Z,100.0
2022-09-14T02:38:08.979Z,100.0
2022-09-14T02:39:11.943Z,100.0
2022-09-14T02:40:12.057Z,100.0
2022-09-14T02:41:09.834Z,100.0
2022-09-14T02:42:12.953Z,100.0
2022-09-14T02:43:09.923Z,100.0
2022-09-14T02:44:08.846Z,100.0
2022-09-14T02:45:09.573Z,100.0
2022-09-14T02:46:10.092Z,100.0
2022-09-14T02:47:04.110Z,100.0
2022-09-14T02:48:08.925Z,100.0
2022-09-14T02:49:10.361Z,100.0
2022-09-14T02:50:15.044Z,100.0
2022-09-14T02:51:08.112Z,100.0
2022-09-14T02:52:09.443Z,100.0
2022-09-14T02:53:09.179Z,100.0
2022-09-14T02:54:06.055Z,100.0
2022-09-14T02:55:08.242Z,100.0
2022-09-14T02:56:04.131Z,100.0
2022-09-14T02:57:01.444Z,100.0
2022-09-14T02:58:03.269Z,100.0
2022-09-14T02:59:01.257Z,100.0
2022-09-14T03:00:01.181Z,100.0
2022-09-14T03:01:01.435Z,100.0
2022-09-14T03:02:01.313Z,100.0
2022-09-14T03:03:01.256Z,100.0
2022-09-14T03:04:01.219Z,100.0
2022-09-14T03:05:01.221Z,100.0
2022-09-14T03:06:01.791Z,100.0
2022-09-14T03:07:01.201Z,100.0
2022-09-14T03:08:01.679Z,100.0
2022-09-14T03:09:01.283Z,100.0
2022-09-14T03:10:01.198Z,100.0
2022-09-14T03:11:01.678Z,100.0
2022-09-14T03:12:02.002Z,100.0
2022-09-14T03:13:01.249Z,100.0
2022-09-14T03:14:01.256Z,100.0
2022-09-14T03:15:01.227Z,100.0
2022-09-14T03:16:04.885Z,100.0
2022-09-14T03:17:01.330Z,100.0
2022-09-14T03:18:01.213Z,100.0
2022-09-14T03:19:01.204Z,100.0
2022-09-14T03:20:01.568Z,100.0
2022-09-14T03:21:03.809Z,100.0
2022-09-14T03:22:01.214Z,100.0
2022-09-14T03:23:02.495Z,100.0
2022-09-14T03:24:02.274Z,100.0
2022-09-14T03:25:00.968Z,100.0
2022-09-14T03:26:01.281Z,100.0
2022-09-14T03:27:00.921Z,100.0
2022-09-14T03:28:01.512Z,100.0
2022-09-14T03:29:01.568Z,100.0
2022-09-14T03:30:01.311Z,100.0
2022-09-14T03:31:01.321Z,100.0
2022-09-14T03:32:01.530Z,100.0
2022-09-14T03:33:01.712Z,100.0
2022-09-14T03:34:01.596Z,100.0
2022-09-14T03:35:01.315Z,100.0
2022-09-14T03:36:09.638Z,100.0
2022-09-14T03:37:01.219Z,100.0
2022-09-14T03:38:01.308Z,100.0
2022-09-14T03:39:00.998Z,100.0
2022-09-14T03:40:01.325Z,100.0
2022-09-14T03:41:00.918Z,100.0
2022-09-14T03:42:01.229Z,100.0
2022-09-14T03:43:01.252Z,100.0
2022-09-14T03:44:01.192Z,100.0
2022-09-14T03:45:01.980Z,100.0
2022-09-14T03:46:05.439Z,100.0
2022-09-14T03:47:00.967Z,100.0
2022-09-14T03:48:01.208Z,100.0
2022-09-14T03:49:01.212Z,100.0
2022-09-14T03:50:01.008Z,100.0
2022-09-14T03:51:02.256Z,100.0
2022-09-14T03:52:01.406Z,100.0
2022-09-14T03:53:00.931Z,100.0
2022-09-14T03:54:01.327Z,100.0
2022-09-14T03:55:01.515Z,100.0
2022-09-14T03:56:06.339Z,100.0
2022-09-14T03:57:01.204Z,100.0
2022-09-14T03:58:01.197Z,100.0
2022-09-14T03:59:01.209Z,100.0
2022-09-14T04:00:01.204Z,100.0
2022-09-14T04:01:04.972Z,100.0
2022-09-14T04:02:02.348Z,100.0
2022-09-14T04:03:01.303Z,100.0
2022-09-14T04:04:01.285Z,100.0
2022-09-14T04:05:01.080Z,100.0
2022-09-14T04:06:01.481Z,100.0
2022-09-14T04:07:01.433Z,100.0
2022-09-14T04:08:01.498Z,100.0
2022-09-14T04:09:00.969Z,100.0
2022-09-14T04:10:01.553Z,100.0
2022-09-14T04:11:06.268Z,100.0
2022-09-14T04:12:01.104Z,100.0
2022-09-14T04:13:01.205Z,100.0
2022-09-14T04:14:02.634Z,100.0
2022-09-14T04:15:01.227Z,100.0
2022-09-14T04:16:02.084Z,100.0
2022-09-14T04:17:02.165Z,100.0
2022-09-14T04:18:01.461Z,100.0
2022-09-14T04:19:01.240Z,100.0
2022-09-14T04:20:01.094Z,100.0
2022-09-14T04:21:07.827Z,100.0
2022-09-14T04:22:01.210Z,100.0
2022-09-14T04:23:00.905Z,100.0
2022-09-14T04:24:14.832Z,100.0
2022-09-14T04:25:01.064Z,100.0
2022-09-14T04:26:01.223Z,100.0
2022-09-14T04:27:01.253Z,100.0
2022-09-14T04:28:19.317Z,100.0
2022-09-14T04:29:01.461Z,100.0
2022-09-14T04:30:00.895Z,100.0
2022-09-14T04:31:01.720Z,100.0
2022-09-14T04:32:01.198Z,100.0
2022-09-14T04:33:00.911Z,100.0
2022-09-14T04:34:01.283Z,100.0
2022-09-14T04:35:01.338Z,100.0
2022-09-14T04:36:04.314Z,100.0
2022-09-14T04:37:01.566Z,100.0
2022-09-14T04:38:01.239Z,100.0
2022-09-14T04:39:02.181Z,100.0
2022-09-14T04:40:01.306Z,100.0
2022-09-14T04:41:05.097Z,100.0
2022-09-14T04:42:01.217Z,100.0
2022-09-14T04:43:00.904Z,100.0
2022-09-14T04:44:01.199Z,100.0
2022-09-14T04:45:00.927Z,100.0
2022-09-14T04:46:02.174Z,100.0
2022-09-14T04:47:01.504Z,100.0
2022-09-14T04:48:01.166Z,100.0
2022-09-14T04:49:01.030Z,100.0
2022-09-14T04:50:00.938Z,100.0
2022-09-14T04:51:02.579Z,100.0
2022-09-14T04:52:01.149Z,100.0
2022-09-14T04:53:01.989Z,100.0
2022-09-14T04:54:02.832Z,100.0
2022-09-14T04:55:01.212Z,100.0
2022-09-14T04:56:03.076Z,100.0
2022-09-14T04:57:01.234Z,100.0
2022-09-14T04:58:01.511Z,100.0
2022-09-14T04:59:03.067Z,100.0
2022-09-14T05:00:01.228Z,100.0
2022-09-14T05:01:02.538Z,100.0
2022-09-14T05:02:01.594Z,100.0
2022-09-14T05:03:01.298Z,100.0
2022-09-14T05:04:01.573Z,100.0
2022-09-14T05:05:00.964Z,100.0
2022-09-14T05:06:02.050Z,100.0
2022-09-14T05:07:01.221Z,100.0
2022-09-14T05:08:01.145Z,100.0
2022-09-14T05:09:03.572Z,100.0
2022-09-14T05:10:01.080Z,100.0
2022-09-14T05:11:01.705Z,100.0
2022-09-14T05:12:01.178Z,100.0
2022-09-14T05:13:01.284Z,100.0
2022-09-14T05:14:01.875Z,100.0
2022-09-14T05:15:00.917Z,100.0
2022-09-14T05:16:06.160Z,100.0
2022-09-14T05:17:01.237Z,100.0
2022-09-14T05:18:01.274Z,100.0
2022-09-14T05:19:04.618Z,100.0
2022-09-14T05:20:01.203Z,100.0
2022-09-14T05:21:07.598Z,100.0
2022-09-14T05:22:01.241Z,100.0
2022-09-14T05:23:00.891Z,100.0
2022-09-14T05:24:04.386Z,100.0
2022-09-14T05:25:00.949Z,100.0
2022-09-14T05:26:01.216Z,100.0
2022-09-14T05:27:02.215Z,100.0
2022-09-14T05:28:01.224Z,100.0
2022-09-14T05:29:02.027Z,100.0
2022-09-14T05:30:00.903Z,100.0
2022-09-14T05:31:04.282Z,100.0
2022-09-14T05:32:01.134Z,100.0
2022-09-14T05:33:00.939Z,100.0
2022-09-14T05:34:00.950Z,100.0
2022-09-14T05:35:01.070Z,100.0
2022-09-14T05:36:03.143Z,100.0
2022-09-14T05:37:01.315Z,100.0
2022-09-14T05:38:01.228Z,100.0
2022-09-14T05:39:01.196Z,100.0
2022-09-14T05:40:01.209Z,100.0
2022-09-14T05:41:01.535Z,100.0
2022-09-14T05:42:00.928Z,100.0
2022-09-14T05:43:01.210Z,100.0
2022-09-14T05:44:01.508Z,100.0
2022-09-14T05:45:01.572Z,100.0
2022-09-14T05:46:03.100Z,100.0
2022-09-14T05:47:01.233Z,100.0
2022-09-14T05:48:01.206Z,100.0
2022-09-14T05:49:01.269Z,100.0
2022-09-14T05:50:01.206Z,100.0
2022-09-14T05:51:02.945Z,100.0
2022-09-14T05:52:01.607Z,100.0
2022-09-14T05:53:00.921Z,100.0
2022-09-14T05:54:01.272Z,100.0
2022-09-14T05:55:01.543Z,100.0
2022-09-14T05:56:02.878Z,100.0
2022-09-14T05:57:01.341Z,100.0
2022-09-14T05:58:01.334Z,100.0
2022-09-14T05:59:00.947Z,100.0
2022-09-14T06:00:01.175Z,100.0
2022-09-14T06:01:07.054Z,100.0
2022-09-14T06:02:00.927Z,100.0
2022-09-14T06:03:01.250Z,100.0
2022-09-14T06:04:02.217Z,100.0
2022-09-14T06:05:01.222Z,100.0
2022-09-14T06:06:01.704Z,100.0
2022-09-14T06:07:18.009Z,100.0
2022-09-14T06:08:01.558Z,100.0
2022-09-14T06:09:01.640Z,100.0
2022-09-14T06:10:00.916Z,100.0
2022-09-14T06:11:03.870Z,100.0
2022-09-14T06:12:01.585Z,100.0
2022-09-14T06:13:01.199Z,100.0
2022-09-14T06:14:01.383Z,100.0
2022-09-14T06:15:01.595Z,100.0
2022-09-14T06:16:02.968Z,100.0
2022-09-14T06:17:01.193Z,100.0
2022-09-14T06:18:01.211Z,100.0
2022-09-14T06:19:01.156Z,100.0
2022-09-14T06:20:04.704Z,100.0
2022-09-14T06:21:02.614Z,100.0
2022-09-14T06:22:00.929Z,100.0
2022-09-14T06:23:01.235Z,100.0
2022-09-14T06:24:01.164Z,100.0
2022-09-14T06:25:01.185Z,100.0
2022-09-14T06:26:04.149Z,100.0
2022-09-14T06:27:01.219Z,100.0
2022-09-14T06:28:01.040Z,100.0
2022-09-14T06:29:01.054Z,100.0
2022-09-14T06:30:01.243Z,100.0
2022-09-14T06:31:01.358Z,100.0
2022-09-14T06:32:01.639Z,100.0
2022-09-14T06:33:00.940Z,100.0
2022-09-14T06:34:01.529Z,100.0
2022-09-14T06:35:01.253Z,100.0
2022-09-14T06:36:03.354Z,100.0
2022-09-14T06:37:01.233Z,100.0
2022-09-14T06:38:01.209Z,100.0
2022-09-14T06:39:01.210Z,100.0
2022-09-14T06:40:01.228Z,100.0
2022-09-14T06:41:03.709Z,100.0
2022-09-14T06:42:01.259Z,100.0
2022-09-14T06:43:00.949Z,100.0
2022-09-14T06:44:02.073Z,100.0
2022-09-14T06:45:01.213Z,100.0
2022-09-14T06:46:03.956Z,100.0
2022-09-14T06:47:01.289Z,100.0
2022-09-14T06:48:01.226Z,100.0
2022-09-14T06:49:05.417Z,100.0
2022-09-14T06:50:01.244Z,100.0
2022-09-14T06:51:11.413Z,100.0
2022-09-14T06:52:01.461Z,100.0
2022-09-14T06:53:01.196Z,100.0
2022-09-14T06:54:01.977Z,99.4
2022-09-14T06:55:01.424Z,99.9
2022-09-14T06:56:01.094Z,100.0
2022-09-14T06:57:01.287Z,100.0
2022-09-14T06:58:00.910Z,100.0
2022-09-14T06:59:01.831Z,100.0
2022-09-14T07:00:01.248Z,99.4
2022-09-14T07:01:02.064Z,98.5
2022-09-14T07:02:00.908Z,98.9
2022-09-14T07:03:01.206Z,98.9
2022-09-14T07:04:01.699Z,99.5
2022-09-14T07:05:01.208Z,99.4
2022-09-14T07:06:02.694Z,98.6
2022-09-14T07:07:01.205Z,99.5
2022-09-14T07:08:01.683Z,100.0
2022-09-14T07:09:03.966Z,100.0
2022-09-14T07:10:01.203Z,99.1
2022-09-14T07:11:02.594Z,99.0
2022-09-14T07:12:01.241Z,99.3
2022-09-14T07:13:01.214Z,98.6
2022-09-14T07:14:02.148Z,97.9
2022-09-14T07:15:01.201Z,99.6
2022-09-14T07:16:02.333Z,97.9
2022-09-14T07:17:01.283Z,97.7
2022-09-14T07:18:01.229Z,98.5
2022-09-14T07:19:03.656Z,99.3
2022-09-14T07:20:01.132Z,97.6
2022-09-14T07:21:05.392Z,98.5
2022-09-14T07:22:01.731Z,97.5
2022-09-14T07:23:01.228Z,98.6
2022-09-14T07:24:02.387Z,99.7
2022-09-14T07:25:01.510Z,99.5
2022-09-14T07:26:03.657Z,100.0
2022-09-14T07:27:02.118Z,99.6
2022-09-14T07:28:01.187Z,99.9
2022-09-14T07:29:03.386Z,99.2
2022-09-14T07:30:01.272Z,98.5
2022-09-14T07:31:02.349Z,97.9
2022-09-14T07:32:01.753Z,96.8
2022-09-14T07:33:01.205Z,97.0
2022-09-14T07:34:03.336Z,97.8
2022-09-14T07:35:01.237Z,97.9
2022-09-14T07:36:05.759Z,98.7
2022-09-14T07:37:00.938Z,99.3
2022-09-14T07:38:01.219Z,98.7
2022-09-14T07:39:03.362Z,99.1
2022-09-14T07:40:01.277Z,98.7
2022-09-14T07:41:02.562Z,99.9
2022-09-14T07:42:01.231Z,100.0
2022-09-14T07:43:01.252Z,100.0
2022-09-14T07:44:04.237Z,100.0
2022-09-14T07:45:01.215Z,100.0
2022-09-14T07:46:01.647Z,100.0
2022-09-14T07:47:01.340Z,100.0
2022-09-14T07:48:01.096Z,100.0
2022-09-14T07:49:02.077Z,99.1
2022-09-14T07:50:01.205Z,97.0
2022-09-14T07:51:02.679Z,97.2
2022-09-14T07:52:01.098Z,98.0
2022-09-14T07:53:00.924Z,97.5
2022-09-14T07:54:01.618Z,97.5
2022-09-14T07:55:01.221Z,98.4
2022-09-14T07:56:01.604Z,98.0
2022-09-14T07:57:01.219Z,97.8
2022-09-14T07:58:01.655Z,97.5
2022-09-14T07:59:23.767Z,98.5
2022-09-14T08:00:01.652Z,98.3
2022-09-14T08:01:03.003Z,99.2
2022-09-14T08:02:01.583Z,99.1
2022-09-14T08:03:01.256Z,99.3
2022-09-14T08:04:05.207Z,100.0
2022-09-14T08:05:01.259Z,100.0
2022-09-14T08:06:02.542Z,100.0
2022-09-14T08:07:01.335Z,100.0
2022-09-14T08:08:01.070Z,100.0
2022-09-14T08:09:05.777Z,99.9
2022-09-14T08:10:00.913Z,100.0
2022-09-14T08:11:04.473Z,100.0
2022-09-14T08:12:01.175Z,100.0
2022-09-14T08:13:01.224Z,100.0
2022-09-14T08:14:03.903Z,100.0
2022-09-14T08:15:00.956Z,100.0
2022-09-14T08:16:01.130Z,100.0
2022-09-14T08:17:01.396Z,100.0
2022-09-14T08:18:01.241Z,100.0
2022-09-14T08:19:04.816Z,100.0
2022-09-14T08:20:01.209Z,100.0
2022-09-14T08:21:03.846Z,100.0
2022-09-14T08:22:01.395Z,99.1
2022-09-14T08:23:00.911Z,99.3
2022-09-14T08:24:01.172Z,99.3
2022-09-14T08:25:01.200Z,99.2
2022-09-14T08:26:03.185Z,97.7
2022-09-14T08:27:00.918Z,98.9
2022-09-14T08:28:01.220Z,99.9
2022-09-14T08:29:01.297Z,100.0
2022-09-14T08:30:00.938Z,100.0
2022-09-14T08:31:03.098Z,100.0
2022-09-14T08:32:01.296Z,100.0
2022-09-14T08:33:01.935Z,100.0
2022-09-14T08:34:02.945Z,100.0
2022-09-14T08:35:00.923Z,100.0
2022-09-14T08:36:01.128Z,100.0
2022-09-14T08:37:01.234Z,100.0
2022-09-14T08:38:01.225Z,100.0
2022-09-14T08:39:01.585Z,100.0
2022-09-14T08:40:01.843Z,100.0
2022-09-14T08:41:10.376Z,100.0
2022-09-14T08:42:02.161Z,100.0
2022-09-14T08:43:03.227Z,100.0
2022-09-14T08:44:11.516Z,100.0
2022-09-14T08:45:09.000Z,100.0
2022-09-14T08:46:04.552Z,100.0
2022-09-14T08:47:03.766Z,100.0
2022-09-14T08:48:02.520Z,100.0
2022-09-14T08:49:08.654Z,100.0
2022-09-14T08:50:06.591Z,100.0
2022-09-14T08:51:04.601Z,100.0
2022-09-14T08:52:01.231Z,100.0
2022-09-14T08:53:01.331Z,100.0
2022-09-14T08:54:00.963Z,100.0
2022-09-14T08:55:12.252Z,100.0
2022-09-14T08:56:07.929Z,100.0
2022-09-14T08:57:08.775Z,100.0
2022-09-14T08:58:05.903Z,100.0
2022-09-14T08:59:20.086Z,100.0
2022-09-14T09:00:06.600Z,100.0
2022-09-14T09:01:12.118Z,100.0
2022-09-14T09:02:17.045Z,100.0
2022-09-14T09:03:20.393Z,100.0
2022-09-14T09:04:15.054Z,100.0
2022-09-14T09:05:11.541Z,100.0
2022-09-14T09:06:13.963Z,100.0
2022-09-14T09:07:07.506Z,100.0
2022-09-14T09:08:12.317Z,100.0
2022-09-14T09:09:10.533Z,100.0
2022-09-14T09:10:04.177Z,100.0
2022-09-14T09:11:02.824Z,100.0
2022-09-14T09:12:01.524Z,100.0
2022-09-14T09:13:04.952Z,100.0
2022-09-14T09:14:08.162Z,100.0
2022-09-14T09:15:13.765Z,100.0
2022-09-14T09:16:05.462Z,100.0
2022-09-14T09:17:04.561Z,100.0
2022-09-14T09:18:06.609Z,100.0
2022-09-14T09:19:06.043Z,100.0
2022-09-14T09:20:08.653Z,100.0
2022-09-14T09:21:07.421Z,100.0
2022-09-14T09:22:04.168Z,100.0
2022-09-14T09:23:10.976Z,100.0
2022-09-14T09:24:14.064Z,100.0
2022-09-14T09:25:03.788Z,100.0
2022-09-14T09:26:05.082Z,100.0
2022-09-14T09:27:00.937Z,99.6
2022-09-14T09:28:09.456Z,98.9
2022-09-14T09:29:02.595Z,99.5
2022-09-14T09:30:01.468Z,99.9
2022-09-14T09:31:05.454Z,99.9
2022-09-14T09:32:03.541Z,100.0
2022-09-14T09:33:00.981Z,100.0
2022-09-14T09:34:01.663Z,100.0
2022-09-14T09:35:01.248Z,100.0
2022-09-14T09:36:01.334Z,100.0
2022-09-14T09:37:01.483Z,100.0
2022-09-14T09:38:01.191Z,100.0
2022-09-14T09:39:05.009Z,100.0
2022-09-14T09:40:01.580Z,100.0
2022-09-14T09:41:09.537Z,100.0
2022-09-14T09:42:05.992Z,100.0
2022-09-14T09:43:06.766Z,100.0
2022-09-14T09:44:04.182Z,100.0
2022-09-14T09:45:04.386Z,100.0
2022-09-14T09:46:03.245Z,100.0
2022-09-14T09:47:01.548Z,100.0
2022-09-14T09:48:09.121Z,100.0
2022-09-14T09:49:03.976Z,100.0
2022-09-14T09:50:04.698Z,100.0
2022-09-14T09:51:06.755Z,100.0
2022-09-14T09:52:08.122Z,100.0
2022-09-14T09:53:06.014Z,100.0
2022-09-14T09:54:06.991Z,100.0
2022-09-14T09:55:04.537Z,100.0
2022-09-14T09:56:02.145Z,100.0
2022-09-14T09:57:04.378Z,100.0
2022-09-14T09:58:20.499Z,100.0
2022-09-14T09:59:01.585Z,100.0
2022-09-14T10:00:17.790Z,100.0
2022-09-14T10:01:02.515Z,100.0
2022-09-14T10:02:20.501Z,100.0
2022-09-14T10:03:20.483Z,100.0
2022-09-14T10:04:04.154Z,100.0
2022-09-14T10:05:03.389Z,100.0
2022-09-14T10:06:03.636Z,100.0
2022-09-14T10:07:01.254Z,100.0
2022-09-14T10:08:06.893Z,100.0
2022-09-14T10:09:01.326Z,100.0
2022-09-14T10:10:04.277Z,100.0
2022-09-14T10:11:02.396Z,100.0
2022-09-14T10:12:03.177Z,100.0
2022-09-14T10:13:04.382Z,100.0
2022-09-14T10:14:01.888Z,100.0
2022-09-14T10:15:12.398Z,100.0
2022-09-14T10:16:06.913Z,100.0
2022-09-14T10:17:06.810Z,100.0
2022-09-14T10:18:06.227Z,100.0
2022-09-14T10:19:01.131Z,100.0
2022-09-14T10:20:01.495Z,100.0
2022-09-14T10:21:07.497Z,100.0
2022-09-14T10:22:17.219Z,100.0
2022-09-14T10:23:20.683Z,100.0
2022-09-14T10:24:05.925Z,100.0
2022-09-14T10:25:12.220Z,100.0
2022-09-14T10:26:17.276Z,100.0
2022-09-14T10:27:01.447Z,100.0
2022-09-14T10:28:01.060Z,100.0
2022-09-14T10:29:20.393Z,100.0
2022-09-14T10:30:03.973Z,100.0
2022-09-14T10:31:06.572Z,100.0
2022-09-14T10:32:13.132Z,100.0
2022-09-14T10:33:02.971Z,100.0
2022-09-14T10:34:01.210Z,100.0
2022-09-14T10:35:01.281Z,100.0
2022-09-14T10:36:12.359Z,100.0
2022-09-14T10:37:12.984Z,100.0
2022-09-14T10:38:14.039Z,100.0
2022-09-14T10:39:11.852Z,100.0
2022-09-14T10:40:14.108Z,100.0
2022-09-14T10:41:09.569Z,100.0
2022-09-14T10:42:09.150Z,100.0
2022-09-14T10:43:10.862Z,100.0
2022-09-14T10:44:18.565Z,100.0
2022-09-14T10:45:16.847Z,100.0
2022-09-14T10:46:04.284Z,100.0
2022-09-14T10:47:18.482Z,100.0
2022-09-14T10:48:20.410Z,100.0
2022-09-14T10:49:15.229Z,100.0
2022-09-14T10:50:20.409Z,100.0
2022-09-14T10:51:07.995Z,100.0
2022-09-14T10:52:11.456Z,100.0
2022-09-14T10:53:10.027Z,100.0
2022-09-14T10:54:14.641Z,100.0
2022-09-14T10:55:19.417Z,100.0
2022-09-14T10:56:05.747Z,100.0
2022-09-14T10:57:09.100Z,100.0
2022-09-14T10:58:20.127Z,100.0
2022-09-14T10:59:16.182Z,100.0
2022-09-14T11:00:05.010Z,100.0
2022-09-14T11:01:15.952Z,100.0
2022-09-14T11:02:20.546Z,100.0
2022-09-14T11:03:14.124Z,100.0
2022-09-14T11:04:19.153Z,100.0
2022-09-14T11:05:14.028Z,100.0
2022-09-14T11:06:10.300Z,100.0
2022-09-14T11:07:08.869Z,100.0
2022-09-14T11:08:13.158Z,100.0
2022-09-14T11:09:06.751Z,100.0
2022-09-14T11:10:13.745Z,100.0
2022-09-14T11:11:20.397Z,100.0
2022-09-14T11:12:11.491Z,100.0
2022-09-14T11:13:20.440Z,100.0
2022-09-14T11:14:14.841Z,100.0
2022-09-14T11:15:14.423Z,100.0
2022-09-14T11:16:13.750Z,100.0
2022-09-14T11:17:18.670Z,100.0
2022-09-14T11:18:12.310Z,100.0
2022-09-14T11:19:11.711Z,100.0
2022-09-14T11:20:11.429Z,100.0
2022-09-14T11:21:08.364Z,100.0
2022-09-14T11:22:05.668Z,100.0
2022-09-14T11:23:14.623Z,100.0
2022-09-14T11:24:11.151Z,100.0
2022-09-14T11:25:09.122Z,100.0
2022-09-14T11:26:07.620Z,100.0
2022-09-14T11:27:05.162Z,100.0
2022-09-14T11:28:05.674Z,100.0
2022-09-14T11:29:10.551Z,100.0
2022-09-14T11:30:04.825Z,99.2
2022-09-14T11:31:04.704Z,99.2
2022-09-14T11:32:20.286Z,99.5
2022-09-14T11:33:06.669Z,99.2
2022-09-14T11:34:12.702Z,99.0
2022-09-14T11:35:10.938Z,99.7
2022-09-14T11:36:07.600Z,99.4
2022-09-14T11:37:07.342Z,99.0
2022-09-14T11:38:10.095Z,98.9
2022-09-14T11:39:09.941Z,99.3
2022-09-14T11:40:13.794Z,100.0
2022-09-14T11:41:13.521Z,98.3
2022-09-14T11:42:06.216Z,98.6
2022-09-14T11:43:09.087Z,97.9
2022-09-14T11:44:05.405Z,97.2
2022-09-14T11:45:05.914Z,96.3
2022-09-14T11:46:07.045Z,96.9
2022-09-14T11:47:05.525Z,96.6
2022-09-14T11:48:41.252Z,96.8
2022-09-14T11:49:12.777Z,96.1
2022-09-14T11:50:13.637Z,95.8
2022-09-14T11:51:06.219Z,94.7
2022-09-14T11:52:06.953Z,94.1
2022-09-14T11:53:10.405Z,94.2
2022-09-14T11:54:01.489Z,94.6
2022-09-14T11:55:07.818Z,94.9
2022-09-14T11:56:01.675Z,94.1
2022-09-14T11:57:02.830Z,93.6
2022-09-14T11:58:05.444Z,92.6
2022-09-14T11:59:04.824Z,92.9
2022-09-14T12:00:07.146Z,92.4
2022-09-14T12:01:20.405Z,92.7
2022-09-14T12:02:20.433Z,91.7
2022-09-14T12:03:14.252Z,91.6
2022-09-14T12:04:07.300Z,89.3
2022-09-14T12:05:20.393Z,89.6
2022-09-14T12:06:20.445Z,88.2
2022-09-14T12:07:01.232Z,86.6
2022-09-14T12:08:04.175Z,86.8
2022-09-14T12:09:20.459Z,87.6
2022-09-14T12:10:17.998Z,85.7
2022-09-14T12:11:04.500Z,87.0
2022-09-14T12:12:01.622Z,85.3
2022-09-14T12:13:19.138Z,85.6
2022-09-14T12:14:12.740Z,85.2
2022-09-14T12:15:03.891Z,84.7
2022-09-14T12:16:03.928Z,84.6
2022-09-14T12:17:13.043Z,84.9
2022-09-14T12:18:19.795Z,85.2
2022-09-14T12:19:01.067Z,86.0
2022-09-14T12:20:20.520Z,85.8
2022-09-14T12:21:04.009Z,86.1
2022-09-14T12:22:19.428Z,85.9
2022-09-14T12:23:13.927Z,85.7
2022-09-14T12:24:14.129Z,85.3
2022-09-14T12:25:04.091Z,85.3
2022-09-14T12:26:12.879Z,83.0
2022-09-14T12:27:14.251Z,82.9
2022-09-14T12:28:01.836Z,81.5
2022-09-14T12:29:06.192Z,79.6
2022-09-14T12:30:01.407Z,81.2
2022-09-14T12:31:12.664Z,80.9
2022-09-14T12:32:03.438Z,81.3
2022-09-14T12:33:02.467Z,76.7
2022-09-14T12:34:12.724Z,77.4
2022-09-14T12:35:20.394Z,76.8
2022-09-14T12:36:02.721Z,76.2
2022-09-14T12:37:05.719Z,76.7
2022-09-14T12:38:20.427Z,75.4
2022-09-14T12:39:20.413Z,75.3
2022-09-14T12:40:20.519Z,76.1
2022-09-14T12:41:02.369Z,76.1
2022-09-14T12:42:04.899Z,77.5
2022-09-14T12:43:20.437Z,74.4
2022-09-14T12:44:01.350Z,74.0
2022-09-14T12:45:20.424Z,72.2
2022-09-14T12:46:03.322Z,72.1
2022-09-14T12:47:20.400Z,72.5
2022-09-14T12:48:01.308Z,72.4
2022-09-14T12:49:02.462Z,72.6
2022-09-14T12:50:08.759Z,74.5
2022-09-14T12:51:03.391Z,73.7
2022-09-14T12:52:12.682Z,74.2
2022-09-14T12:53:15.839Z,74.3
2022-09-14T12:54:09.394Z,74.3
2022-09-14T12:55:20.163Z,73.9
2022-09-14T12:56:04.921Z,74.9
2022-09-14T12:57:14.728Z,73.9
2022-09-14T12:58:09.079Z,72.1
2022-09-14T12:59:09.941Z,72.9